sensor_id;sensor_type;location;lat;lon;timestamp;P1;durP1;ratioP1;P2;durP2;ratioP2
20884;SDS011;10602;48.000;9.654;2023-12-07T03:20:48;34.20;;;9.10;;
20884;SDS011;10602;48.000;9.654;2023-12-07T03:23:16;59.63;;;9.63;;
20884;SDS011;10602;48.000;9.654;2023-12-07T03:25:44;19.90;;;7.30;;
20884;SDS011;10602;48.000;9.654;2023-12-07T03:28:11;33.17;;;7.47;;
20884;SDS011;10602;48.000;9.654;2023-12-07T03:30:39;35.30;;;8.13;;
20884;SDS011;10602;48.000;9.654;2023-12-07T03:33:06;30.67;;;7.73;;
20884;SDS011;10602;48.000;9.654;2023-12-07T03:35:34;14.67;;;7.37;;
20884;SDS011;10602;48.000;9.654;2023-12-07T03:38:02;23.40;;;7.93;;
20884;SDS011;10602;48.000;9.654;2023-12-07T03:40:29;27.70;;;7.67;;
20884;SDS011;10602;48.000;9.654;2023-12-07T03:42:57;41.13;;;8.47;;
20884;SDS011;10602;48.000;9.654;2023-12-07T03:45:24;26.47;;;7.03;;
20884;SDS011;10602;48.000;9.654;2023-12-07T03:47:53;28.80;;;7.73;;
20884;SDS011;10602;48.000;9.654;2023-12-07T03:50:21;36.97;;;8.30;;
20884;SDS011;10602;48.000;9.654;2023-12-07T03:52:48;28.20;;;7.30;;
20884;SDS011;10602;48.000;9.654;2023-12-07T03:55:16;15.90;;;6.87;;
20884;SDS011;10602;48.000;9.654;2023-12-07T03:57:43;16.10;;;6.83;;
20884;SDS011;10602;48.000;9.654;2023-12-07T04:00:11;36.67;;;7.30;;
20884;SDS011;10602;48.000;9.654;2023-12-07T04:02:39;25.77;;;6.43;;
20884;SDS011;10602;48.000;9.654;2023-12-07T04:05:06;16.33;;;6.87;;
20884;SDS011;10602;48.000;9.654;2023-12-07T04:07:34;27.10;;;7.07;;
20884;SDS011;10602;48.000;9.654;2023-12-07T04:10:02;18.13;;;6.67;;
20884;SDS011;10602;48.000;9.654;2023-12-07T04:12:31;22.13;;;7.40;;
20884;SDS011;10602;48.000;9.654;2023-12-07T04:14:59;21.13;;;6.93;;
20884;SDS011;10602;48.000;9.654;2023-12-07T04:17:26;22.33;;;6.53;;
20884;SDS011;10602;48.000;9.654;2023-12-07T04:19:54;21.70;;;6.57;;
20884;SDS011;10602;48.000;9.654;2023-12-07T04:22:21;12.30;;;5.80;;
20884;SDS011;10602;48.000;9.654;2023-12-07T04:24:49;17.13;;;5.50;;
20884;SDS011;10602;48.000;9.654;2023-12-07T04:27:17;18.63;;;6.37;;
20884;SDS011;10602;48.000;9.654;2023-12-07T04:29:45;14.63;;;6.50;;
20884;SDS011;10602;48.000;9.654;2023-12-07T04:32:12;14.23;;;6.30;;
20884;SDS011;10602;48.000;9.654;2023-12-07T04:34:40;8.53;;;4.37;;
20884;SDS011;10602;48.000;9.654;2023-12-07T04:37:08;8.87;;;4.03;;
20884;SDS011;10602;48.000;9.654;2023-12-07T04:39:35;12.20;;;5.23;;
20884;SDS011;10602;48.000;9.654;2023-12-07T04:42:03;15.57;;;5.40;;
20884;SDS011;10602;48.000;9.654;2023-12-07T04:44:31;9.83;;;4.70;;
20884;SDS011;10602;48.000;9.654;2023-12-07T04:46:58;9.63;;;5.30;;
20884;SDS011;10602;48.000;9.654;2023-12-07T04:49:26;15.80;;;5.83;;
20884;SDS011;10602;48.000;9.654;2023-12-07T04:51:54;9.93;;;5.50;;
20884;SDS011;10602;48.000;9.654;2023-12-07T04:54:21;11.80;;;5.73;;
20884;SDS011;10602;48.000;9.654;2023-12-07T04:56:49;13.43;;;7.07;;
20884;SDS011;10602;48.000;9.654;2023-12-07T04:59:16;12.10;;;8.10;;
20884;SDS011;10602;48.000;9.654;2023-12-07T05:01:44;10.50;;;8.13;;
20884;SDS011;10602;48.000;9.654;2023-12-07T05:04:13;11.27;;;7.30;;
20884;SDS011;10602;48.000;9.654;2023-12-07T05:06:40;12.30;;;8.00;;
20884;SDS011;10602;48.000;9.654;2023-12-07T05:09:08;12.00;;;6.83;;
20884;SDS011;10602;48.000;9.654;2023-12-07T05:11:36;10.10;;;5.33;;
20884;SDS011;10602;48.000;9.654;2023-12-07T05:14:04;8.23;;;4.97;;
20884;SDS011;10602;48.000;9.654;2023-12-07T05:16:31;10.77;;;5.27;;
20884;SDS011;10602;48.000;9.654;2023-12-07T05:18:59;9.10;;;4.70;;
20884;SDS011;10602;48.000;9.654;2023-12-07T05:21:27;6.13;;;4.53;;
20884;SDS011;10602;48.000;9.654;2023-12-07T05:23:54;7.60;;;5.10;;
20884;SDS011;10602;48.000;9.654;2023-12-07T05:26:22;9.40;;;5.63;;
20884;SDS011;10602;48.000;9.654;2023-12-07T05:28:49;11.27;;;5.80;;
20884;SDS011;10602;48.000;9.654;2023-12-07T05:31:17;10.03;;;5.83;;
20884;SDS011;10602;48.000;9.654;2023-12-07T05:33:45;10.57;;;6.60;;
20884;SDS011;10602;48.000;9.654;2023-12-07T05:36:13;13.70;;;7.20;;
20884;SDS011;10602;48.000;9.654;2023-12-07T05:38:40;16.47;;;7.70;;
20884;SDS011;10602;48.000;9.654;2023-12-07T05:41:08;10.83;;;6.57;;
20884;SDS011;10602;48.000;9.654;2023-12-07T05:46:11;23.80;;;7.90;;
20884;SDS011;10602;48.000;9.654;2023-12-07T05:48:38;18.60;;;7.97;;
20884;SDS011;10602;48.000;9.654;2023-12-07T05:51:11;16.13;;;9.67;;
20884;SDS011;10602;48.000;9.654;2023-12-07T05:53:45;23.87;;;10.30;;
20884;SDS011;10602;48.000;9.654;2023-12-07T05:56:09;18.20;;;8.57;;
20884;SDS011;10602;48.000;9.654;2023-12-07T05:58:37;13.07;;;7.83;;
20884;SDS011;10602;48.000;9.654;2023-12-07T06:01:05;22.87;;;7.77;;
20884;SDS011;10602;48.000;9.654;2023-12-07T06:03:33;12.17;;;6.77;;
20884;SDS011;10602;48.000;9.654;2023-12-07T06:06:01;10.07;;;5.40;;
20884;SDS011;10602;48.000;9.654;2023-12-07T06:08:29;10.93;;;5.47;;
20884;SDS011;10602;48.000;9.654;2023-12-07T06:10:56;9.37;;;6.30;;
20884;SDS011;10602;48.000;9.654;2023-12-07T06:13:24;7.83;;;5.80;;
20884;SDS011;10602;48.000;9.654;2023-12-07T06:15:51;11.10;;;6.30;;
20884;SDS011;10602;48.000;9.654;2023-12-07T06:18:19;11.63;;;5.70;;
20884;SDS011;10602;48.000;9.654;2023-12-07T06:20:46;13.27;;;6.70;;
20884;SDS011;10602;48.000;9.654;2023-12-07T06:23:14;12.77;;;6.53;;
20884;SDS011;10602;48.000;9.654;2023-12-07T06:25:42;19.50;;;8.40;;
20884;SDS011;10602;48.000;9.654;2023-12-07T06:28:09;22.63;;;8.53;;
20884;SDS011;10602;48.000;9.654;2023-12-07T06:30:37;19.93;;;9.63;;
20884;SDS011;10602;48.000;9.654;2023-12-07T06:33:05;15.40;;;8.57;;
20884;SDS011;10602;48.000;9.654;2023-12-07T06:35:33;16.23;;;8.53;;
20884;SDS011;10602;48.000;9.654;2023-12-07T06:38:00;16.70;;;9.53;;
20884;SDS011;10602;48.000;9.654;2023-12-07T06:40:28;27.90;;;10.83;;
20884;SDS011;10602;48.000;9.654;2023-12-07T06:42:57;26.07;;;11.23;;
20884;SDS011;10602;48.000;9.654;2023-12-07T06:45:25;20.83;;;9.90;;
20884;SDS011;10602;48.000;9.654;2023-12-07T06:47:52;18.87;;;8.90;;
20884;SDS011;10602;48.000;9.654;2023-12-07T06:50:20;21.40;;;10.70;;
20884;SDS011;10602;48.000;9.654;2023-12-07T06:52:47;24.43;;;10.33;;
20884;SDS011;10602;48.000;9.654;2023-12-07T06:55:15;24.40;;;10.90;;
20884;SDS011;10602;48.000;9.654;2023-12-07T06:57:42;30.63;;;10.67;;
20884;SDS011;10602;48.000;9.654;2023-12-07T07:00:10;25.37;;;12.87;;
20884;SDS011;10602;48.000;9.654;2023-12-07T07:02:38;23.07;;;10.30;;
20884;SDS011;10602;48.000;9.654;2023-12-07T07:05:06;28.90;;;13.77;;
20884;SDS011;10602;48.000;9.654;2023-12-07T07:07:35;26.87;;;15.93;;
20884;SDS011;10602;48.000;9.654;2023-12-07T07:10:04;31.67;;;14.67;;
20884;SDS011;10602;48.000;9.654;2023-12-07T07:12:32;27.53;;;14.47;;
20884;SDS011;10602;48.000;9.654;2023-12-07T07:14:59;27.37;;;14.23;;
20884;SDS011;10602;48.000;9.654;2023-12-07T07:17:27;27.13;;;13.37;;
20884;SDS011;10602;48.000;9.654;2023-12-07T07:19:55;27.03;;;14.30;;
20884;SDS011;10602;48.000;9.654;2023-12-07T07:22:22;30.77;;;15.80;;
20884;SDS011;10602;48.000;9.654;2023-12-07T07:24:50;36.27;;;16.03;;
20884;SDS011;10602;48.000;9.654;2023-12-07T07:27:18;34.20;;;16.83;;
20884;SDS011;10602;48.000;9.654;2023-12-07T07:29:45;29.67;;;15.80;;
20884;SDS011;10602;48.000;9.654;2023-12-07T07:32:13;29.63;;;14.47;;
20884;SDS011;10602;48.000;9.654;2023-12-07T07:34:41;31.87;;;13.13;;
20884;SDS011;10602;48.000;9.654;2023-12-07T07:37:09;25.57;;;12.83;;
20884;SDS011;10602;48.000;9.654;2023-12-07T07:39:36;16.63;;;8.53;;
20884;SDS011;10602;48.000;9.654;2023-12-07T07:42:04;17.47;;;8.87;;
20884;SDS011;10602;48.000;9.654;2023-12-07T07:44:32;18.77;;;9.30;;
20884;SDS011;10602;48.000;9.654;2023-12-07T07:46:59;21.43;;;11.73;;
20884;SDS011;10602;48.000;9.654;2023-12-07T07:49:27;33.47;;;14.90;;
20884;SDS011;10602;48.000;9.654;2023-12-07T07:51:54;39.60;;;21.27;;
20884;SDS011;10602;48.000;9.654;2023-12-07T07:54:22;47.07;;;21.50;;
20884;SDS011;10602;48.000;9.654;2023-12-07T07:56:51;43.73;;;20.27;;
20884;SDS011;10602;48.000;9.654;2023-12-07T07:59:18;35.77;;;17.87;;
20884;SDS011;10602;48.000;9.654;2023-12-07T08:01:46;39.83;;;17.47;;
20884;SDS011;10602;48.000;9.654;2023-12-07T08:04:14;27.13;;;14.00;;
20884;SDS011;10602;48.000;9.654;2023-12-07T08:06:42;23.10;;;12.27;;
20884;SDS011;10602;48.000;9.654;2023-12-07T08:09:10;22.30;;;12.37;;
20884;SDS011;10602;48.000;9.654;2023-12-07T08:11:37;23.77;;;14.77;;
20884;SDS011;10602;48.000;9.654;2023-12-07T08:14:05;30.63;;;17.20;;
20884;SDS011;10602;48.000;9.654;2023-12-07T08:16:32;29.23;;;16.20;;
20884;SDS011;10602;48.000;9.654;2023-12-07T08:19:00;31.10;;;18.93;;
20884;SDS011;10602;48.000;9.654;2023-12-07T08:21:27;20.47;;;13.93;;
20884;SDS011;10602;48.000;9.654;2023-12-07T08:23:55;19.23;;;13.87;;
20884;SDS011;10602;48.000;9.654;2023-12-07T08:26:23;17.33;;;14.63;;
20884;SDS011;10602;48.000;9.654;2023-12-07T08:28:52;16.93;;;13.50;;
20884;SDS011;10602;48.000;9.654;2023-12-07T08:31:22;16.30;;;13.87;;
20884;SDS011;10602;48.000;9.654;2023-12-07T08:33:50;18.50;;;13.57;;
20884;SDS011;10602;48.000;9.654;2023-12-07T08:36:18;16.27;;;13.53;;
20884;SDS011;10602;48.000;9.654;2023-12-07T08:38:45;16.67;;;14.93;;
20884;SDS011;10602;48.000;9.654;2023-12-07T08:41:13;19.77;;;17.67;;
20884;SDS011;10602;48.000;9.654;2023-12-07T08:43:43;17.50;;;15.77;;
20884;SDS011;10602;48.000;9.654;2023-12-07T08:46:09;15.73;;;14.13;;
20884;SDS011;10602;48.000;9.654;2023-12-07T08:48:37;15.27;;;13.87;;
20884;SDS011;10602;48.000;9.654;2023-12-07T08:51:04;14.57;;;13.07;;
20884;SDS011;10602;48.000;9.654;2023-12-07T08:53:38;14.43;;;12.93;;
20884;SDS011;10602;48.000;9.654;2023-12-07T08:56:05;15.03;;;13.83;;
20884;SDS011;10602;48.000;9.654;2023-12-07T08:58:33;13.93;;;12.70;;
20884;SDS011;10602;48.000;9.654;2023-12-07T09:01:00;13.77;;;12.57;;
20884;SDS011;10602;48.000;9.654;2023-12-07T09:03:28;11.37;;;10.37;;
20884;SDS011;10602;48.000;9.654;2023-12-07T09:05:57;9.80;;;9.00;;
20884;SDS011;10602;48.000;9.654;2023-12-07T09:08:26;9.70;;;8.80;;
20884;SDS011;10602;48.000;9.654;2023-12-07T09:10:53;8.30;;;7.40;;
20884;SDS011;10602;48.000;9.654;2023-12-07T09:13:21;6.77;;;6.27;;
20884;SDS011;10602;48.000;9.654;2023-12-07T09:15:49;6.93;;;6.40;;
20884;SDS011;10602;48.000;9.654;2023-12-07T09:18:16;7.63;;;7.03;;
20884;SDS011;10602;48.000;9.654;2023-12-07T09:20:44;7.73;;;7.03;;
20884;SDS011;10602;48.000;9.654;2023-12-07T09:23:15;7.30;;;6.70;;
20884;SDS011;10602;48.000;9.654;2023-12-07T09:25:43;7.43;;;6.83;;
20884;SDS011;10602;48.000;9.654;2023-12-07T09:28:15;7.87;;;7.17;;
20884;SDS011;10602;48.000;9.654;2023-12-07T09:30:39;7.67;;;6.97;;
20884;SDS011;10602;48.000;9.654;2023-12-07T09:33:07;7.40;;;6.80;;
20884;SDS011;10602;48.000;9.654;2023-12-07T09:35:35;7.60;;;7.00;;
20884;SDS011;10602;48.000;9.654;2023-12-07T09:38:02;7.43;;;6.83;;
20884;SDS011;10602;48.000;9.654;2023-12-07T09:40:30;6.60;;;6.10;;
20884;SDS011;10602;48.000;9.654;2023-12-07T09:42:58;6.07;;;5.57;;
20884;SDS011;10602;48.000;9.654;2023-12-07T09:45:25;4.80;;;4.40;;
20884;SDS011;10602;48.000;9.654;2023-12-07T09:47:53;4.53;;;4.17;;
20884;SDS011;10602;48.000;9.654;2023-12-07T09:50:22;5.00;;;4.60;;
20884;SDS011;10602;48.000;9.654;2023-12-07T09:52:52;5.40;;;5.00;;
20884;SDS011;10602;48.000;9.654;2023-12-07T09:55:22;6.00;;;5.50;;
20884;SDS011;10602;48.000;9.654;2023-12-07T09:57:50;6.07;;;5.57;;
20884;SDS011;10602;48.000;9.654;2023-12-07T10:00:20;7.27;;;6.67;;
20884;SDS011;10602;48.000;9.654;2023-12-07T10:02:47;8.00;;;7.30;;
20884;SDS011;10602;48.000;9.654;2023-12-07T10:05:16;9.53;;;8.63;;
20884;SDS011;10602;48.000;9.654;2023-12-07T10:07:44;8.30;;;7.60;;
20884;SDS011;10602;48.000;9.654;2023-12-07T10:10:17;8.47;;;7.67;;
20884;SDS011;10602;48.000;9.654;2023-12-07T10:12:47;7.93;;;7.23;;
20884;SDS011;10602;48.000;9.654;2023-12-07T10:15:16;7.90;;;7.30;;
20884;SDS011;10602;48.000;9.654;2023-12-07T10:17:48;6.87;;;6.27;;
20884;SDS011;10602;48.000;9.654;2023-12-07T10:20:20;7.47;;;6.87;;
20884;SDS011;10602;48.000;9.654;2023-12-07T10:23:04;7.40;;;6.80;;
20884;SDS011;10602;48.000;9.654;2023-12-07T10:25:37;7.33;;;6.63;;
20884;SDS011;10602;48.000;9.654;2023-12-07T10:28:09;7.10;;;6.50;;
20884;SDS011;10602;48.000;9.654;2023-12-07T10:30:41;7.43;;;6.70;;
20884;SDS011;10602;48.000;9.654;2023-12-07T10:33:10;7.37;;;6.67;;
20884;SDS011;10602;48.000;9.654;2023-12-07T10:35:39;7.47;;;6.83;;
20884;SDS011;10602;48.000;9.654;2023-12-07T10:38:11;8.23;;;7.53;;
20884;SDS011;10602;48.000;9.654;2023-12-07T10:40:45;8.33;;;7.53;;
20884;SDS011;10602;48.000;9.654;2023-12-07T10:43:14;8.30;;;7.43;;
20884;SDS011;10602;48.000;9.654;2023-12-07T10:45:44;9.43;;;7.33;;
20884;SDS011;10602;48.000;9.654;2023-12-07T10:48:13;8.33;;;7.57;;
20884;SDS011;10602;48.000;9.654;2023-12-07T23:44:29;9.23;;;6.33;;
20884;SDS011;10602;48.000;9.654;2023-12-07T23:46:56;9.90;;;6.73;;
20884;SDS011;10602;48.000;9.654;2023-12-07T23:49:24;11.03;;;7.33;;
20884;SDS011;10602;48.000;9.654;2023-12-07T23:51:51;11.30;;;7.37;;
20884;SDS011;10602;48.000;9.654;2023-12-07T23:54:19;9.73;;;7.27;;
20884;SDS011;10602;48.000;9.654;2023-12-07T23:56:46;9.40;;;7.07;;
20884;SDS011;10602;48.000;9.654;2023-12-07T23:59:14;12.03;;;8.63;;
